sensor_id;sensor_type;location;lat;lon;timestamp;temperature;humidity
3308;DHT22;1666;48.898;9.182;2023-04-24T00:00:28;11.60;1.00
3308;DHT22;1666;48.898;9.182;2023-04-24T00:02:58;11.60;1.00
3308;DHT22;1666;48.898;9.182;2023-04-24T00:05:28;11.70;1.00
3308;DHT22;1666;48.898;9.182;2023-04-24T00:08:02;11.70;1.00
3308;DHT22;1666;48.898;9.182;2023-04-24T00:10:32;11.80;1.00
3308;DHT22;1666;48.898;9.182;2023-04-24T00:13:02;11.80;1.00
3308;DHT22;1666;48.898;9.182;2023-04-24T00:15:32;11.80;1.00
3308;DHT22;1666;48.898;9.182;2023-04-24T00:18:02;11.80;1.00
3308;DHT22;1666;48.898;9.182;2023-04-24T00:20:32;11.80;1.00
3308;DHT22;1666;48.898;9.182;2023-04-24T00:23:05;11.80;1.00
3308;DHT22;1666;48.898;9.182;2023-04-24T00:25:35;11.90;1.00
3308;DHT22;1666;48.898;9.182;2023-04-24T00:28:04;11.90;1.00
3308;DHT22;1666;48.898;9.182;2023-04-24T00:30:34;11.90;1.00
3308;DHT22;1666;48.898;9.182;2023-04-24T00:33:04;11.90;1.00
3308;DHT22;1666;48.898;9.182;2023-04-24T00:35:34;12.00;1.00
3308;DHT22;1666;48.898;9.182;2023-04-24T00:38:06;12.00;1.00
3308;DHT22;1666;48.898;9.182;2023-04-24T00:40:37;12.00;1.00
3308;DHT22;1666;48.898;9.182;2023-04-24T00:43:06;12.00;1.00
3308;DHT22;1666;48.898;9.182;2023-04-24T00:45:36;12.00;1.00
3308;DHT22;1666;48.898;9.182;2023-04-24T00:48:06;12.00;1.00
3308;DHT22;1666;48.898;9.182;2023-04-24T00:50:37;11.90;1.00
3308;DHT22;1666;48.898;9.182;2023-04-24T00:53:10;11.90;1.00
3308;DHT22;1666;48.898;9.182;2023-04-24T00:55:40;11.90;1.00
3308;DHT22;1666;48.898;9.182;2023-04-24T00:58:10;11.90;1.00
3308;DHT22;1666;48.898;9.182;2023-04-24T01:00:40;11.90;1.00
3308;DHT22;1666;48.898;9.182;2023-04-24T01:03:10;11.90;1.00
3308;DHT22;1666;48.898;9.182;2023-04-24T01:05:41;11.90;1.00
3308;DHT22;1666;48.898;9.182;2023-04-24T01:08:14;11.90;1.00
3308;DHT22;1666;48.898;9.182;2023-04-24T01:10:44;11.90;1.00
3308;DHT22;1666;48.898;9.182;2023-04-24T01:13:15;11.90;1.00
3308;DHT22;1666;48.898;9.182;2023-04-24T01:15:45;12.00;1.00
3308;DHT22;1666;48.898;9.182;2023-04-24T01:18:15;12.00;1.00
3308;DHT22;1666;48.898;9.182;2023-04-24T01:20:46;11.90;1.00
3308;DHT22;1666;48.898;9.182;2023-04-24T01:23:18;11.90;1.00
3308;DHT22;1666;48.898;9.182;2023-04-24T01:25:49;11.90;1.00
3308;DHT22;1666;48.898;9.182;2023-04-24T01:28:19;11.90;1.00
3308;DHT22;1666;48.898;9.182;2023-04-24T01:30:50;11.90;1.00
3308;DHT22;1666;48.898;9.182;2023-04-24T01:33:21;11.80;1.00
3308;DHT22;1666;48.898;9.182;2023-04-24T01:35:51;11.80;1.00
3308;DHT22;1666;48.898;9.182;2023-04-24T01:38:23;11.80;1.00
3308;DHT22;1666;48.898;9.182;2023-04-24T01:40:53;11.70;1.00
3308;DHT22;1666;48.898;9.182;2023-04-24T01:43:24;11.70;1.00
3308;DHT22;1666;48.898;9.182;2023-04-24T01:45:54;11.70;1.00
3308;DHT22;1666;48.898;9.182;2023-04-24T01:48:24;11.60;1.00
3308;DHT22;1666;48.898;9.182;2023-04-24T01:50:54;11.60;1.00
3308;DHT22;1666;48.898;9.182;2023-04-24T01:53:26;11.60;1.00
3308;DHT22;1666;48.898;9.182;2023-04-24T01:55:57;11.60;1.00
3308;DHT22;1666;48.898;9.182;2023-04-24T01:58:27;11.50;1.00
3308;DHT22;1666;48.898;9.182;2023-04-24T02:00:57;11.50;1.00
3308;DHT22;1666;48.898;9.182;2023-04-24T02:03:27;11.50;1.00
3308;DHT22;1666;48.898;9.182;2023-04-24T02:05:57;11.50;1.00
3308;DHT22;1666;48.898;9.182;2023-04-24T02:08:30;11.50;1.00
3308;DHT22;1666;48.898;9.182;2023-04-24T02:11:00;11.40;1.00
3308;DHT22;1666;48.898;9.182;2023-04-24T02:13:30;11.40;1.00
3308;DHT22;1666;48.898;9.182;2023-04-24T02:16:00;11.40;1.00
3308;DHT22;1666;48.898;9.182;2023-04-24T02:18:30;11.30;1.00
3308;DHT22;1666;48.898;9.182;2023-04-24T02:21:00;11.30;1.00
3308;DHT22;1666;48.898;9.182;2023-04-24T02:23:33;11.40;1.00
3308;DHT22;1666;48.898;9.182;2023-04-24T02:26:02;11.40;1.00
3308;DHT22;1666;48.898;9.182;2023-04-24T02:28:32;11.40;1.00
3308;DHT22;1666;48.898;9.182;2023-04-24T02:31:02;11.40;1.00
3308;DHT22;1666;48.898;9.182;2023-04-24T02:33:33;11.50;1.00
3308;DHT22;1666;48.898;9.182;2023-04-24T02:36:03;11.50;1.00
3308;DHT22;1666;48.898;9.182;2023-04-24T02:38:35;11.50;1.00
3308;DHT22;1666;48.898;9.182;2023-04-24T02:41:05;11.60;1.00
3308;DHT22;1666;48.898;9.182;2023-04-24T02:43:35;11.50;1.00
3308;DHT22;1666;48.898;9.182;2023-04-24T02:46:05;11.50;1.00
3308;DHT22;1666;48.898;9.182;2023-04-24T02:48:35;11.40;1.50
3308;DHT22;1666;48.898;9.182;2023-04-24T02:51:05;11.30;5.10
3308;DHT22;1666;48.898;9.182;2023-04-24T02:53:39;11.20;6.40
3308;DHT22;1666;48.898;9.182;2023-04-24T02:56:09;11.20;8.60
3308;DHT22;1666;48.898;9.182;2023-04-24T02:58:39;11.20;10.20
3308;DHT22;1666;48.898;9.182;2023-04-24T03:01:09;11.10;10.90
3308;DHT22;1666;48.898;9.182;2023-04-24T03:03:39;11.10;12.10
3308;DHT22;1666;48.898;9.182;2023-04-24T03:06:10;11.00;12.70
3308;DHT22;1666;48.898;9.182;2023-04-24T03:08:42;11.00;13.50
3308;DHT22;1666;48.898;9.182;2023-04-24T03:11:12;11.00;12.60
3308;DHT22;1666;48.898;9.182;2023-04-24T03:13:42;10.90;13.20
3308;DHT22;1666;48.898;9.182;2023-04-24T03:16:12;10.90;13.80
3308;DHT22;1666;48.898;9.182;2023-04-24T03:18:45;10.90;13.90
3308;DHT22;1666;48.898;9.182;2023-04-24T03:21:14;10.90;13.50
3308;DHT22;1666;48.898;9.182;2023-04-24T03:23:47;10.90;13.90
3308;DHT22;1666;48.898;9.182;2023-04-24T03:26:17;10.80;13.70
3308;DHT22;1666;48.898;9.182;2023-04-24T03:28:47;10.80;14.00
3308;DHT22;1666;48.898;9.182;2023-04-24T03:31:17;10.80;14.90
3308;DHT22;1666;48.898;9.182;2023-04-24T03:33:48;10.70;17.10
3308;DHT22;1666;48.898;9.182;2023-04-24T03:36:18;10.70;18.30
3308;DHT22;1666;48.898;9.182;2023-04-24T03:38:51;10.70;16.80
3308;DHT22;1666;48.898;9.182;2023-04-24T03:41:21;10.70;16.60
3308;DHT22;1666;48.898;9.182;2023-04-24T03:43:51;10.70;17.10
3308;DHT22;1666;48.898;9.182;2023-04-24T03:46:21;10.70;16.50
3308;DHT22;1666;48.898;9.182;2023-04-24T03:48:51;10.70;17.10
3308;DHT22;1666;48.898;9.182;2023-04-24T03:51:21;10.60;16.90
3308;DHT22;1666;48.898;9.182;2023-04-24T03:53:54;10.60;17.40
3308;DHT22;1666;48.898;9.182;2023-04-24T03:56:24;10.50;17.00
3308;DHT22;1666;48.898;9.182;2023-04-24T03:58:54;10.50;17.80
3308;DHT22;1666;48.898;9.182;2023-04-24T04:01:24;10.50;18.10
3308;DHT22;1666;48.898;9.182;2023-04-24T04:03:55;10.50;18.90
3308;DHT22;1666;48.898;9.182;2023-04-24T04:06:25;10.60;17.80
3308;DHT22;1666;48.898;9.182;2023-04-24T04:08:58;10.60;17.10
3308;DHT22;1666;48.898;9.182;2023-04-24T04:11:28;10.60;17.30
3308;DHT22;1666;48.898;9.182;2023-04-24T04:13:58;10.60;18.60
3308;DHT22;1666;48.898;9.182;2023-04-24T04:16:28;10.70;18.40
3308;DHT22;1666;48.898;9.182;2023-04-24T04:18:58;10.70;17.90
3308;DHT22;1666;48.898;9.182;2023-04-24T04:21:30;10.70;18.90
3308;DHT22;1666;48.898;9.182;2023-04-24T04:24:03;10.50;22.20
3308;DHT22;1666;48.898;9.182;2023-04-24T04:26:34;10.20;27.30
3308;DHT22;1666;48.898;9.182;2023-04-24T04:29:04;9.90;29.90
3308;DHT22;1666;48.898;9.182;2023-04-24T04:31:34;10.00;35.40
3308;DHT22;1666;48.898;9.182;2023-04-24T04:34:04;9.80;31.50
3308;DHT22;1666;48.898;9.182;2023-04-24T04:36:34;9.80;35.20
3308;DHT22;1666;48.898;9.182;2023-04-24T04:39:09;9.80;33.50
3308;DHT22;1666;48.898;9.182;2023-04-24T04:41:42;9.70;33.40
3308;DHT22;1666;48.898;9.182;2023-04-24T04:44:13;9.70;34.10
3308;DHT22;1666;48.898;9.182;2023-04-24T04:46:43;9.70;34.10
3308;DHT22;1666;48.898;9.182;2023-04-24T04:49:14;9.80;36.30
3308;DHT22;1666;48.898;9.182;2023-04-24T04:51:44;9.70;34.30
3308;DHT22;1666;48.898;9.182;2023-04-24T04:54:16;9.70;30.60
3308;DHT22;1666;48.898;9.182;2023-04-24T04:56:46;9.80;32.20
3308;DHT22;1666;48.898;9.182;2023-04-24T04:59:16;9.70;29.50
3308;DHT22;1666;48.898;9.182;2023-04-24T05:01:46;9.70;30.90
3308;DHT22;1666;48.898;9.182;2023-04-24T05:04:16;9.70;30.00
3308;DHT22;1666;48.898;9.182;2023-04-24T05:06:46;9.70;31.70
3308;DHT22;1666;48.898;9.182;2023-04-24T05:09:20;9.60;30.90
3308;DHT22;1666;48.898;9.182;2023-04-24T05:11:50;9.60;30.50
3308;DHT22;1666;48.898;9.182;2023-04-24T05:14:20;9.70;30.90
3308;DHT22;1666;48.898;9.182;2023-04-24T05:16:50;9.60;31.40
3308;DHT22;1666;48.898;9.182;2023-04-24T05:19:20;9.70;30.50
3308;DHT22;1666;48.898;9.182;2023-04-24T05:21:50;9.60;30.70
3308;DHT22;1666;48.898;9.182;2023-04-24T05:24:23;9.70;31.60
3308;DHT22;1666;48.898;9.182;2023-04-24T05:26:53;9.70;30.80
3308;DHT22;1666;48.898;9.182;2023-04-24T05:29:24;9.80;29.50
3308;DHT22;1666;48.898;9.182;2023-04-24T05:31:53;9.70;29.50
3308;DHT22;1666;48.898;9.182;2023-04-24T05:34:23;9.60;25.10
3308;DHT22;1666;48.898;9.182;2023-04-24T05:36:53;9.70;29.70
3308;DHT22;1666;48.898;9.182;2023-04-24T05:39:26;9.70;27.30
3308;DHT22;1666;48.898;9.182;2023-04-24T05:41:56;9.70;27.00
3308;DHT22;1666;48.898;9.182;2023-04-24T05:44:28;9.70;26.90
3308;DHT22;1666;48.898;9.182;2023-04-24T05:46:58;9.70;28.10
3308;DHT22;1666;48.898;9.182;2023-04-24T05:49:28;9.80;28.40
3308;DHT22;1666;48.898;9.182;2023-04-24T05:51:58;9.60;26.50
3308;DHT22;1666;48.898;9.182;2023-04-24T05:54:32;9.70;28.50
3308;DHT22;1666;48.898;9.182;2023-04-24T05:57:02;9.80;28.50
3308;DHT22;1666;48.898;9.182;2023-04-24T05:59:36;10.00;26.30
3308;DHT22;1666;48.898;9.182;2023-04-24T06:02:06;10.30;25.50
3308;DHT22;1666;48.898;9.182;2023-04-24T06:04:37;10.80;22.60
3308;DHT22;1666;48.898;9.182;2023-04-24T06:07:07;10.80;18.10
3308;DHT22;1666;48.898;9.182;2023-04-24T06:09:39;10.80;15.70
3308;DHT22;1666;48.898;9.182;2023-04-24T06:12:10;10.80;17.00
3308;DHT22;1666;48.898;9.182;2023-04-24T06:14:39;10.60;16.10
3308;DHT22;1666;48.898;9.182;2023-04-24T06:17:09;10.60;16.00
3308;DHT22;1666;48.898;9.182;2023-04-24T06:19:39;10.50;12.40
3308;DHT22;1666;48.898;9.182;2023-04-24T06:22:09;10.60;13.80
3308;DHT22;1666;48.898;9.182;2023-04-24T06:24:42;11.10;11.00
3308;DHT22;1666;48.898;9.182;2023-04-24T06:27:12;11.50;8.80
3308;DHT22;1666;48.898;9.182;2023-04-24T06:29:42;11.50;1.00
3308;DHT22;1666;48.898;9.182;2023-04-24T06:32:12;11.60;1.00
3308;DHT22;1666;48.898;9.182;2023-04-24T06:34:42;12.10;1.00
3308;DHT22;1666;48.898;9.182;2023-04-24T06:37:11;11.90;1.00
3308;DHT22;1666;48.898;9.182;2023-04-24T06:39:45;11.90;1.00
3308;DHT22;1666;48.898;9.182;2023-04-24T06:42:15;11.80;1.00
3308;DHT22;1666;48.898;9.182;2023-04-24T06:44:47;11.70;1.00
3308;DHT22;1666;48.898;9.182;2023-04-24T06:47:17;11.50;1.00
3308;DHT22;1666;48.898;9.182;2023-04-24T06:49:47;11.60;1.00
3308;DHT22;1666;48.898;9.182;2023-04-24T06:52:19;11.30;1.00
3308;DHT22;1666;48.898;9.182;2023-04-24T06:54:52;11.40;1.00
3308;DHT22;1666;48.898;9.182;2023-04-24T06:57:22;11.80;1.00
3308;DHT22;1666;48.898;9.182;2023-04-24T06:59:51;11.80;1.00
3308;DHT22;1666;48.898;9.182;2023-04-24T07:02:22;12.20;1.00
3308;DHT22;1666;48.898;9.182;2023-04-24T07:04:52;11.90;1.00
3308;DHT22;1666;48.898;9.182;2023-04-24T07:07:22;11.90;1.00
3308;DHT22;1666;48.898;9.182;2023-04-24T07:09:55;12.10;1.00
3308;DHT22;1666;48.898;9.182;2023-04-24T07:12:25;12.40;1.00
3308;DHT22;1666;48.898;9.182;2023-04-24T07:14:55;12.30;1.00
3308;DHT22;1666;48.898;9.182;2023-04-24T07:17:25;12.70;1.00
3308;DHT22;1666;48.898;9.182;2023-04-24T07:19:54;12.30;1.00
3308;DHT22;1666;48.898;9.182;2023-04-24T07:22:25;11.80;1.00
3308;DHT22;1666;48.898;9.182;2023-04-24T07:24:57;11.90;1.00
3308;DHT22;1666;48.898;9.182;2023-04-24T07:27:28;11.80;1.00
3308;DHT22;1666;48.898;9.182;2023-04-24T07:29:58;11.60;1.00
3308;DHT22;1666;48.898;9.182;2023-04-24T07:32:28;11.90;1.00
3308;DHT22;1666;48.898;9.182;2023-04-24T07:34:58;12.50;1.00
3308;DHT22;1666;48.898;9.182;2023-04-24T07:37:28;12.70;1.00
3308;DHT22;1666;48.898;9.182;2023-04-24T07:40:01;13.10;1.00
3308;DHT22;1666;48.898;9.182;2023-04-24T07:42:31;12.90;1.00
3308;DHT22;1666;48.898;9.182;2023-04-24T07:45:01;12.60;1.00
3308;DHT22;1666;48.898;9.182;2023-04-24T07:47:32;12.20;1.00
3308;DHT22;1666;48.898;9.182;2023-04-24T07:50:02;12.00;1.00
3308;DHT22;1666;48.898;9.182;2023-04-24T07:52:32;11.80;1.00
3308;DHT22;1666;48.898;9.182;2023-04-24T07:55:05;11.80;1.00
3308;DHT22;1666;48.898;9.182;2023-04-24T07:57:36;12.30;1.00
3308;DHT22;1666;48.898;9.182;2023-04-24T08:00:08;12.30;1.00
3308;DHT22;1666;48.898;9.182;2023-04-24T08:02:38;12.20;1.00
3308;DHT22;1666;48.898;9.182;2023-04-24T08:05:08;11.90;1.00
3308;DHT22;1666;48.898;9.182;2023-04-24T08:07:39;12.00;1.00
3308;DHT22;1666;48.898;9.182;2023-04-24T08:10:12;12.20;1.00
3308;DHT22;1666;48.898;9.182;2023-04-24T08:12:42;12.20;1.00
3308;DHT22;1666;48.898;9.182;2023-04-24T08:15:12;12.00;1.00
3308;DHT22;1666;48.898;9.182;2023-04-24T08:17:42;12.30;1.00
3308;DHT22;1666;48.898;9.182;2023-04-24T08:20:12;12.10;1.00
3308;DHT22;1666;48.898;9.182;2023-04-24T08:22:43;12.10;1.00
3308;DHT22;1666;48.898;9.182;2023-04-24T08:25:17;11.90;1.00
3308;DHT22;1666;48.898;9.182;2023-04-24T08:27:47;11.90;1.00
3308;DHT22;1666;48.898;9.182;2023-04-24T08:30:17;11.70;1.00
3308;DHT22;1666;48.898;9.182;2023-04-24T08:32:47;12.10;1.00
3308;DHT22;1666;48.898;9.182;2023-04-24T08:35:18;11.90;1.00
3308;DHT22;1666;48.898;9.182;2023-04-24T08:37:48;12.50;1.00
3308;DHT22;1666;48.898;9.182;2023-04-24T08:40:26;12.30;1.00
3308;DHT22;1666;48.898;9.182;2023-04-24T08:42:56;12.40;1.00
3308;DHT22;1666;48.898;9.182;2023-04-24T08:45:27;12.60;1.00
3308;DHT22;1666;48.898;9.182;2023-04-24T08:47:57;12.60;1.00
3308;DHT22;1666;48.898;9.182;2023-04-24T08:50:29;12.40;1.00
3308;DHT22;1666;48.898;9.182;2023-04-24T08:52:59;13.10;1.00
3308;DHT22;1666;48.898;9.182;2023-04-24T08:55:33;12.80;1.00
3308;DHT22;1666;48.898;9.182;2023-04-24T08:58:04;13.50;1.00
3308;DHT22;1666;48.898;9.182;2023-04-24T09:00:34;13.20;1.00
3308;DHT22;1666;48.898;9.182;2023-04-24T09:03:05;13.40;1.00
3308;DHT22;1666;48.898;9.182;2023-04-24T09:05:36;13.40;1.00
3308;DHT22;1666;48.898;9.182;2023-04-24T09:08:08;13.20;1.00
3308;DHT22;1666;48.898;9.182;2023-04-24T09:10:43;13.80;1.00
3308;DHT22;1666;48.898;9.182;2023-04-24T09:13:16;13.40;1.00
3308;DHT22;1666;48.898;9.182;2023-04-24T09:15:47;13.30;1.00
3308;DHT22;1666;48.898;9.182;2023-04-24T09:18:17;13.20;1.00
3308;DHT22;1666;48.898;9.182;2023-04-24T09:21:00;13.00;1.00
3308;DHT22;1666;48.898;9.182;2023-04-24T09:23:34;13.00;1.00
3308;DHT22;1666;48.898;9.182;2023-04-24T09:26:09;12.60;1.00
3308;DHT22;1666;48.898;9.182;2023-04-24T09:28:41;12.50;1.00
3308;DHT22;1666;48.898;9.182;2023-04-24T09:31:13;12.30;1.00
3308;DHT22;1666;48.898;9.182;2023-04-24T09:33:54;12.30;1.00
3308;DHT22;1666;48.898;9.182;2023-04-24T09:36:28;12.40;1.00
3308;DHT22;1666;48.898;9.182;2023-04-24T09:39:01;12.50;1.00
3308;DHT22;1666;48.898;9.182;2023-04-24T09:41:34;13.20;1.00
3308;DHT22;1666;48.898;9.182;2023-04-24T09:44:12;13.70;1.00
3308;DHT22;1666;48.898;9.182;2023-04-24T09:46:42;13.00;1.00
3308;DHT22;1666;48.898;9.182;2023-04-24T09:49:14;13.10;1.00
3308;DHT22;1666;48.898;9.182;2023-04-24T09:51:44;13.10;1.00
3308;DHT22;1666;48.898;9.182;2023-04-24T09:54:15;13.00;1.00
3308;DHT22;1666;48.898;9.182;2023-04-24T09:56:50;12.70;1.00
3308;DHT22;1666;48.898;9.182;2023-04-24T09:59:20;12.50;1.00
3308;DHT22;1666;48.898;9.182;2023-04-24T10:01:50;12.40;1.00
3308;DHT22;1666;48.898;9.182;2023-04-24T10:04:22;12.60;1.00
3308;DHT22;1666;48.898;9.182;2023-04-24T10:06:54;13.20;1.00
3308;DHT22;1666;48.898;9.182;2023-04-24T10:09:25;13.20;1.00
3308;DHT22;1666;48.898;9.182;2023-04-24T10:11:59;13.20;1.00
3308;DHT22;1666;48.898;9.182;2023-04-24T10:14:30;13.00;1.00
3308;DHT22;1666;48.898;9.182;2023-04-24T10:17:00;13.10;1.00
3308;DHT22;1666;48.898;9.182;2023-04-24T10:19:31;13.20;1.00
3308;DHT22;1666;48.898;9.182;2023-04-24T10:22:03;13.00;1.00
3308;DHT22;1666;48.898;9.182;2023-04-24T10:24:35;12.70;1.00
3308;DHT22;1666;48.898;9.182;2023-04-24T10:27:08;12.50;1.00
3308;DHT22;1666;48.898;9.182;2023-04-24T10:29:39;12.50;1.00
3308;DHT22;1666;48.898;9.182;2023-04-24T10:32:10;12.70;1.00
3308;DHT22;1666;48.898;9.182;2023-04-24T10:34:40;12.80;1.00
3308;DHT22;1666;48.898;9.182;2023-04-24T10:37:10;12.70;1.00
3308;DHT22;1666;48.898;9.182;2023-04-24T10:39:40;12.10;1.00
3308;DHT22;1666;48.898;9.182;2023-04-24T10:42:19;12.10;1.00
3308;DHT22;1666;48.898;9.182;2023-04-24T10:44:50;11.90;1.00
3308;DHT22;1666;48.898;9.182;2023-04-24T10:47:21;12.00;1.00
3308;DHT22;1666;48.898;9.182;2023-04-24T10:49:52;12.10;1.00
3308;DHT22;1666;48.898;9.182;2023-04-24T10:52:22;11.90;1.00
3308;DHT22;1666;48.898;9.182;2023-04-24T10:54:52;12.10;1.00
3308;DHT22;1666;48.898;9.182;2023-04-24T10:57:30;12.40;1.00
3308;DHT22;1666;48.898;9.182;2023-04-24T11:00:20;12.70;1.00
3308;DHT22;1666;48.898;9.182;2023-04-24T11:02:52;12.30;1.00
3308;DHT22;1666;48.898;9.182;2023-04-24T11:05:51;12.80;1.00
3308;DHT22;1666;48.898;9.182;2023-04-24T11:08:26;13.00;1.00
3308;DHT22;1666;48.898;9.182;2023-04-24T11:10:58;13.40;1.00
3308;DHT22;1666;48.898;9.182;2023-04-24T11:14:07;13.20;1.00
3308;DHT22;1666;48.898;9.182;2023-04-24T11:16:43;12.80;1.00
3308;DHT22;1666;48.898;9.182;2023-04-24T11:19:24;12.90;1.00
3308;DHT22;1666;48.898;9.182;2023-04-24T11:21:58;13.20;1.00
3308;DHT22;1666;48.898;9.182;2023-04-24T11:24:36;12.90;1.00
3308;DHT22;1666;48.898;9.182;2023-04-24T11:27:12;13.30;1.00
3308;DHT22;1666;48.898;9.182;2023-04-24T11:29:48;13.50;1.00
3308;DHT22;1666;48.898;9.182;2023-04-24T11:32:23;13.80;1.00
3308;DHT22;1666;48.898;9.182;2023-04-24T11:34:54;13.50;1.00
3308;DHT22;1666;48.898;9.182;2023-04-24T11:37:26;13.80;1.00
3308;DHT22;1666;48.898;9.182;2023-04-24T11:39:58;14.00;1.00
3308;DHT22;1666;48.898;9.182;2023-04-24T11:42:29;14.20;1.00
3308;DHT22;1666;48.898;9.182;2023-04-24T11:45:08;14.10;1.00
3308;DHT22;1666;48.898;9.182;2023-04-24T11:47:40;13.90;1.00
3308;DHT22;1666;48.898;9.182;2023-04-24T11:50:12;14.00;1.00
3308;DHT22;1666;48.898;9.182;2023-04-24T11:52:43;13.10;1.00
3308;DHT22;1666;48.898;9.182;2023-04-24T11:55:24;13.70;1.00
3308;DHT22;1666;48.898;9.182;2023-04-24T11:57:56;13.80;1.00
3308;DHT22;1666;48.898;9.182;2023-04-24T12:00:31;14.20;1.00
3308;DHT22;1666;48.898;9.182;2023-04-24T12:03:06;14.20;1.00
3308;DHT22;1666;48.898;9.182;2023-04-24T12:05:38;13.60;1.00
3308;DHT22;1666;48.898;9.182;2023-04-24T12:08:08;13.20;1.00
3308;DHT22;1666;48.898;9.182;2023-04-24T12:10:38;13.50;1.00
3308;DHT22;1666;48.898;9.182;2023-04-24T12:13:09;13.20;1.00
3308;DHT22;1666;48.898;9.182;2023-04-24T12:15:42;13.30;1.00
3308;DHT22;1666;48.898;9.182;2023-04-24T12:18:12;13.30;1.00
3308;DHT22;1666;48.898;9.182;2023-04-24T12:20:44;13.30;1.00
3308;DHT22;1666;48.898;9.182;2023-04-24T12:23:13;12.90;1.00
3308;DHT22;1666;48.898;9.182;2023-04-24T12:25:44;13.00;1.00
3308;DHT22;1666;48.898;9.182;2023-04-24T12:28:14;12.60;1.00
3308;DHT22;1666;48.898;9.182;2023-04-24T12:30:48;13.00;1.00
3308;DHT22;1666;48.898;9.182;2023-04-24T12:33:18;13.10;1.00
3308;DHT22;1666;48.898;9.182;2023-04-24T12:35:51;12.80;1.00
3308;DHT22;1666;48.898;9.182;2023-04-24T12:38:22;12.60;1.00
3308;DHT22;1666;48.898;9.182;2023-04-24T12:41:02;12.30;1.00
3308;DHT22;1666;48.898;9.182;2023-04-24T12:43:33;12.40;1.00
3308;DHT22;1666;48.898;9.182;2023-04-24T12:46:06;12.00;1.00
3308;DHT22;1666;48.898;9.182;2023-04-24T12:48:36;12.50;1.00
3308;DHT22;1666;48.898;9.182;2023-04-24T12:51:06;12.70;1.00
3308;DHT22;1666;48.898;9.182;2023-04-24T12:53:36;13.00;1.00
3308;DHT22;1666;48.898;9.182;2023-04-24T12:56:06;13.30;1.00
3308;DHT22;1666;48.898;9.182;2023-04-24T12:58:36;13.20;1.00
3308;DHT22;1666;48.898;9.182;2023-04-24T13:01:09;12.90;1.00
3308;DHT22;1666;48.898;9.182;2023-04-24T13:03:38;13.10;1.00
3308;DHT22;1666;48.898;9.182;2023-04-24T13:06:10;12.80;1.00
3308;DHT22;1666;48.898;9.182;2023-04-24T13:08:39;13.30;1.00
3308;DHT22;1666;48.898;9.182;2023-04-24T13:11:09;13.90;1.00
3308;DHT22;1666;48.898;9.182;2023-04-24T13:13:39;14.10;1.00
3308;DHT22;1666;48.898;9.182;2023-04-24T13:16:12;12.90;1.00
3308;DHT22;1666;48.898;9.182;2023-04-24T13:18:42;13.10;1.00
3308;DHT22;1666;48.898;9.182;2023-04-24T13:21:12;13.20;1.00
3308;DHT22;1666;48.898;9.182;2023-04-24T13:23:42;13.00;1.00
3308;DHT22;1666;48.898;9.182;2023-04-24T13:26:12;13.30;1.00
3308;DHT22;1666;48.898;9.182;2023-04-24T13:28:42;13.10;1.00
3308;DHT22;1666;48.898;9.182;2023-04-24T13:31:15;13.70;1.00
3308;DHT22;1666;48.898;9.182;2023-04-24T13:33:45;14.50;1.00
3308;DHT22;1666;48.898;9.182;2023-04-24T13:36:15;14.10;1.00
3308;DHT22;1666;48.898;9.182;2023-04-24T13:38:45;14.00;1.00
3308;DHT22;1666;48.898;9.182;2023-04-24T13:41:15;13.80;1.00
3308;DHT22;1666;48.898;9.182;2023-04-24T13:43:44;13.40;1.00
3308;DHT22;1666;48.898;9.182;2023-04-24T13:46:17;13.70;1.00
3308;DHT22;1666;48.898;9.182;2023-04-24T13:48:47;14.10;1.00
3308;DHT22;1666;48.898;9.182;2023-04-24T13:51:17;13.50;1.00
3308;DHT22;1666;48.898;9.182;2023-04-24T13:53:47;13.90;1.00
3308;DHT22;1666;48.898;9.182;2023-04-24T13:56:16;13.80;1.00
3308;DHT22;1666;48.898;9.182;2023-04-24T13:58:47;13.80;1.00
3308;DHT22;1666;48.898;9.182;2023-04-24T14:01:21;13.40;1.00
3308;DHT22;1666;48.898;9.182;2023-04-24T14:03:52;13.00;1.00
3308;DHT22;1666;48.898;9.182;2023-04-24T14:06:23;13.40;1.00
3308;DHT22;1666;48.898;9.182;2023-04-24T14:08:53;14.00;1.00
3308;DHT22;1666;48.898;9.182;2023-04-24T14:11:23;14.00;1.00
3308;DHT22;1666;48.898;9.182;2023-04-24T14:13:53;13.60;1.00
3308;DHT22;1666;48.898;9.182;2023-04-24T14:16:26;13.60;1.00
3308;DHT22;1666;48.898;9.182;2023-04-24T14:18:57;13.20;1.00
3308;DHT22;1666;48.898;9.182;2023-04-24T14:21:27;13.50;1.00
3308;DHT22;1666;48.898;9.182;2023-04-24T14:23:57;13.20;1.00
3308;DHT22;1666;48.898;9.182;2023-04-24T14:26:27;13.20;1.00
3308;DHT22;1666;48.898;9.182;2023-04-24T14:28:58;13.20;1.00
3308;DHT22;1666;48.898;9.182;2023-04-24T14:31:33;13.30;1.00
3308;DHT22;1666;48.898;9.182;2023-04-24T14:34:03;13.60;1.00
3308;DHT22;1666;48.898;9.182;2023-04-24T14:36:33;13.40;1.00
3308;DHT22;1666;48.898;9.182;2023-04-24T14:39:03;13.10;1.00
3308;DHT22;1666;48.898;9.182;2023-04-24T14:41:34;13.20;1.00
3308;DHT22;1666;48.898;9.182;2023-04-24T14:44:06;13.00;1.00
3308;DHT22;1666;48.898;9.182;2023-04-24T14:46:40;12.60;1.00
3308;DHT22;1666;48.898;9.182;2023-04-24T14:49:11;12.90;1.00
3308;DHT22;1666;48.898;9.182;2023-04-24T14:51:41;13.40;1.00
3308;DHT22;1666;48.898;9.182;2023-04-24T14:54:18;13.50;1.00
3308;DHT22;1666;48.898;9.182;2023-04-24T14:56:50;13.50;1.00
3308;DHT22;1666;48.898;9.182;2023-04-24T14:59:20;13.70;1.00
3308;DHT22;1666;48.898;9.182;2023-04-24T15:01:52;14.00;1.00
3308;DHT22;1666;48.898;9.182;2023-04-24T15:04:43;14.00;1.00
3308;DHT22;1666;48.898;9.182;2023-04-24T15:07:14;14.10;1.00
3308;DHT22;1666;48.898;9.182;2023-04-24T15:09:44;14.10;1.00
3308;DHT22;1666;48.898;9.182;2023-04-24T15:12:14;13.80;1.00
3308;DHT22;1666;48.898;9.182;2023-04-24T15:14:44;14.10;1.00
3308;DHT22;1666;48.898;9.182;2023-04-24T15:17:16;13.60;1.00
3308;DHT22;1666;48.898;9.182;2023-04-24T15:19:46;13.40;1.00
3308;DHT22;1666;48.898;9.182;2023-04-24T15:22:16;13.20;1.00
3308;DHT22;1666;48.898;9.182;2023-04-24T15:24:46;13.30;1.00
3308;DHT22;1666;48.898;9.182;2023-04-24T15:27:16;13.40;1.00
3308;DHT22;1666;48.898;9.182;2023-04-24T15:29:46;13.30;1.00
3308;DHT22;1666;48.898;9.182;2023-04-24T15:32:18;12.90;1.00
3308;DHT22;1666;48.898;9.182;2023-04-24T15:34:48;13.20;1.00
3308;DHT22;1666;48.898;9.182;2023-04-24T15:37:34;13.10;1.00
3308;DHT22;1666;48.898;9.182;2023-04-24T15:40:05;13.40;1.00
3308;DHT22;1666;48.898;9.182;2023-04-24T15:42:35;13.40;1.00
3308;DHT22;1666;48.898;9.182;2023-04-24T15:45:06;12.90;1.00
3308;DHT22;1666;48.898;9.182;2023-04-24T15:47:39;13.00;1.00
3308;DHT22;1666;48.898;9.182;2023-04-24T15:50:09;13.10;1.00
3308;DHT22;1666;48.898;9.182;2023-04-24T15:52:40;13.10;1.00
3308;DHT22;1666;48.898;9.182;2023-04-24T15:55:11;13.00;1.00
3308;DHT22;1666;48.898;9.182;2023-04-24T15:57:42;12.90;1.00
3308;DHT22;1666;48.898;9.182;2023-04-24T16:00:13;12.90;1.00
3308;DHT22;1666;48.898;9.182;2023-04-24T16:02:46;13.00;1.00
3308;DHT22;1666;48.898;9.182;2023-04-24T16:05:17;12.90;1.00
3308;DHT22;1666;48.898;9.182;2023-04-24T16:07:50;12.90;1.00
3308;DHT22;1666;48.898;9.182;2023-04-24T16:10:20;12.80;1.00
3308;DHT22;1666;48.898;9.182;2023-04-24T16:12:50;13.00;1.00
3308;DHT22;1666;48.898;9.182;2023-04-24T16:15:20;12.80;1.00
3308;DHT22;1666;48.898;9.182;2023-04-24T16:17:53;12.90;1.00
3308;DHT22;1666;48.898;9.182;2023-04-24T16:20:23;12.90;1.00
3308;DHT22;1666;48.898;9.182;2023-04-24T16:22:53;13.00;1.00
3308;DHT22;1666;48.898;9.182;2023-04-24T16:25:23;12.90;1.00
3308;DHT22;1666;48.898;9.182;2023-04-24T16:27:53;12.90;1.00
3308;DHT22;1666;48.898;9.182;2023-04-24T16:30:23;12.50;1.00
3308;DHT22;1666;48.898;9.182;2023-04-24T16:32:56;12.60;1.00
3308;DHT22;1666;48.898;9.182;2023-04-24T16:35:26;12.60;1.00
3308;DHT22;1666;48.898;9.182;2023-04-24T16:37:56;12.70;1.00
3308;DHT22;1666;48.898;9.182;2023-04-24T16:40:26;12.60;1.00
3308;DHT22;1666;48.898;9.182;2023-04-24T16:42:56;12.60;1.00